createdAt,value
2022-08-11T00:01:16.267Z,2.57
2022-08-11T00:03:47.635Z,2.60
2022-08-11T00:06:24.332Z,2.77
2022-08-11T00:08:53.376Z,2.67
2022-08-11T00:11:24.073Z,3.13
2022-08-11T00:13:55.588Z,2.60
2022-08-11T00:16:26.204Z,2.73
2022-08-11T00:18:56.926Z,2.90
2022-08-11T00:21:32.475Z,2.70
2022-08-11T00:24:16.991Z,2.77
2022-08-11T00:26:50.047Z,2.47
2022-08-11T00:29:18.549Z,2.40
2022-08-11T00:31:51.877Z,3.10
2022-08-11T00:34:23.397Z,2.80
2022-08-11T00:36:54.474Z,2.70
2022-08-11T00:39:29.146Z,2.90
2022-08-11T00:42:09.286Z,2.70
2022-08-11T00:44:49.131Z,2.60
2022-08-11T00:47:28.680Z,2.83
2022-08-11T00:50:19.540Z,2.57
2022-08-11T00:53:32.326Z,2.73
2022-08-11T00:56:39.511Z,2.67
2022-08-11T00:59:40.070Z,2.87
2022-08-11T01:02:18.351Z,2.80
2022-08-11T01:05:15.173Z,2.87
2022-08-11T01:08:34.034Z,3.07
2022-08-11T01:11:55.285Z,3.37
2022-08-11T01:14:41.743Z,3.47
2022-08-11T01:17:50.503Z,3.10
2022-08-11T01:20:49.935Z,3.03
2022-08-11T01:24:09.142Z,3.23
2022-08-11T01:27:19.669Z,3.03
2022-08-11T01:30:40.650Z,2.70
2022-08-11T01:33:47.335Z,3.10
2022-08-11T01:36:57.231Z,2.90
2022-08-11T01:40:23.242Z,3.37
2022-08-11T01:43:29.690Z,3.20
2022-08-11T01:46:00.589Z,2.80
2022-08-11T01:48:41.993Z,2.80
2022-08-11T01:51:19.271Z,2.93
2022-08-11T01:53:59.041Z,3.30
2022-08-11T01:56:39.296Z,3.13
2022-08-11T01:59:15.644Z,3.03
2022-08-11T02:01:59.066Z,2.97
2022-08-11T02:04:34.600Z,3.23
2022-08-11T02:07:14.613Z,3.50
2022-08-11T02:09:56.978Z,3.00
2022-08-11T02:12:52.776Z,2.87
2022-08-11T02:15:29.104Z,3.20
2022-08-11T02:18:06.538Z,3.40
2022-08-11T02:21:00.347Z,3.00
2022-08-11T02:24:06.070Z,3.20
2022-08-11T02:26:39.491Z,3.03
2022-08-11T02:29:18.847Z,3.20
2022-08-11T02:32:29.998Z,3.50
2022-08-11T02:35:11.126Z,3.30
2022-08-11T02:37:59.356Z,3.30
2022-08-11T02:40:36.989Z,2.87
2022-08-11T02:43:18.920Z,3.20
2022-08-11T02:45:55.498Z,3.10
2022-08-11T02:49:09.998Z,3.30
2022-08-11T02:51:47.532Z,3.57
2022-08-11T02:54:26.310Z,3.37
2022-08-11T02:56:59.778Z,2.90
2022-08-11T02:59:53.746Z,3.23
2022-08-11T03:02:51.543Z,3.00
2022-08-11T03:05:27.484Z,2.83
2022-08-11T03:08:22.551Z,3.20
2022-08-11T03:11:19.178Z,3.00
2022-08-11T03:14:15.826Z,3.37
2022-08-11T03:16:49.663Z,3.60
2022-08-11T03:19:25.652Z,2.90
2022-08-11T03:22:06.420Z,3.50
2022-08-11T03:24:46.439Z,3.10
2022-08-11T03:27:29.911Z,3.67
2022-08-11T03:30:07.938Z,3.17
2022-08-11T03:33:07.104Z,4.07
2022-08-11T03:35:39.224Z,3.87
2022-08-11T03:38:12.177Z,3.50
2022-08-11T03:41:49.318Z,3.93
2022-08-11T03:44:14.195Z,3.63
2022-08-11T03:47:00.365Z,3.67
2022-08-11T03:49:39.270Z,4.20
2022-08-11T03:52:17.651Z,3.50
2022-08-11T03:55:01.787Z,3.47
2022-08-11T03:58:01.588Z,3.97
2022-08-11T04:01:35.962Z,3.50
2022-08-11T04:04:37.786Z,3.67
2022-08-11T04:07:58.418Z,3.63
2022-08-11T04:11:02.151Z,4.57
2022-08-11T04:14:19.066Z,4.43
2022-08-11T04:16:53.593Z,3.63
2022-08-11T04:19:55.484Z,3.93
2022-08-11T04:22:55.361Z,3.60
2022-08-11T04:25:58.475Z,4.00
2022-08-11T04:28:54.475Z,4.20
2022-08-11T04:31:51.544Z,4.83
2022-08-11T04:34:38.143Z,4.90
2022-08-11T04:37:34.488Z,5.47
2022-08-11T04:40:32.652Z,5.43
2022-08-11T04:43:37.180Z,4.97
2022-08-11T04:46:45.925Z,4.80
2022-08-11T04:49:52.731Z,5.23
2022-08-11T04:53:19.824Z,3.97
2022-08-11T04:56:22.184Z,4.00
2022-08-11T04:59:32.230Z,4.27
2022-08-11T05:02:41.309Z,3.70
2022-08-11T05:05:33.366Z,4.30
2022-08-11T05:08:29.663Z,4.23
2022-08-11T05:11:18.254Z,4.70
2022-08-11T05:14:07.002Z,3.83
2022-08-11T05:17:01.271Z,3.83
2022-08-11T05:19:47.282Z,3.90
2022-08-11T05:22:36.516Z,4.10
2022-08-11T05:26:44.111Z,4.13
2022-08-11T05:28:35.281Z,4.17
2022-08-11T05:31:28.609Z,3.47
2022-08-11T05:34:18.082Z,4.50
2022-08-11T05:36:51.550Z,4.07
2022-08-11T05:39:41.580Z,4.03
2022-08-11T05:42:30.362Z,4.13
2022-08-11T05:45:23.056Z,4.00
2022-08-11T05:48:10.555Z,4.77
2022-08-11T05:50:57.812Z,4.40
2022-08-11T05:53:46.389Z,5.07
2022-08-11T05:56:18.354Z,4.57
2022-08-11T05:58:50.305Z,4.43
2022-08-11T06:01:25.595Z,4.30
2022-08-11T06:04:12.443Z,4.73
2022-08-11T06:06:45.358Z,4.20
2022-08-11T06:09:15.586Z,3.83
2022-08-11T06:11:45.214Z,4.10
2022-08-11T06:14:15.421Z,5.00
2022-08-11T06:16:49.713Z,4.80
2022-08-11T06:19:21.311Z,4.77
2022-08-11T06:21:52.125Z,5.13
2022-08-11T06:24:20.746Z,5.40
2022-08-11T06:29:47.997Z,4.33
2022-08-11T06:32:27.068Z,5.23
2022-08-11T06:35:06.085Z,4.50
2022-08-11T06:37:44.753Z,4.60
2022-08-11T06:40:21.900Z,4.83
2022-08-11T06:42:55.841Z,4.70
2022-08-11T06:45:33.704Z,3.90
2022-08-11T06:48:06.444Z,4.00
2022-08-11T06:50:54.008Z,4.07
2022-08-11T06:53:22.798Z,3.90
2022-08-11T06:56:09.178Z,4.13
2022-08-11T06:58:56.634Z,3.80
2022-08-11T07:01:48.611Z,3.90
2022-08-11T07:04:29.120Z,3.63
2022-08-11T07:07:39.962Z,3.83
2022-08-11T07:10:47.540Z,3.57
2022-08-11T07:13:44.809Z,4.07
2022-08-11T07:16:18.708Z,3.47
2022-08-11T07:19:13.407Z,3.87
2022-08-11T07:22:06.801Z,3.63
2022-08-11T07:25:01.971Z,4.17
2022-08-11T07:28:10.172Z,3.50
2022-08-11T07:30:41.406Z,3.83
2022-08-11T07:33:11.651Z,3.80
2022-08-11T07:36:05.025Z,3.70
2022-08-11T07:38:47.435Z,3.33
2022-08-11T07:41:19.098Z,3.20
2022-08-11T07:43:49.666Z,3.57
2022-08-11T07:46:37.067Z,3.40
2022-08-11T07:49:24.566Z,3.87
2022-08-11T07:52:12.229Z,3.77
2022-08-11T07:54:45.394Z,3.60
2022-08-11T07:58:13.789Z,3.50
2022-08-11T08:00:42.797Z,3.50
2022-08-11T08:03:33.777Z,3.70
2022-08-11T08:06:35.863Z,3.87
2022-08-11T08:09:23.626Z,3.77
2022-08-11T08:12:13.955Z,3.43
2022-08-11T08:15:01.241Z,3.87
2022-08-11T08:18:09.376Z,3.90
2022-08-11T08:20:39.347Z,3.90
2022-08-11T08:23:09.170Z,3.90
2022-08-11T08:25:41.402Z,3.90
2022-08-11T08:28:14.402Z,3.43
2022-08-11T08:30:50.520Z,3.40
2022-08-11T08:33:23.388Z,3.63
2022-08-11T08:36:13.894Z,3.93
2022-08-11T08:38:47.428Z,3.43
2022-08-11T08:41:19.270Z,3.73
2022-08-11T08:44:15.123Z,3.23
2022-08-11T08:46:52.365Z,3.80
2022-08-11T08:49:26.924Z,3.37
2022-08-11T08:52:32.061Z,3.17
2022-08-11T08:54:54.191Z,3.73
2022-08-11T08:57:24.582Z,3.43
2022-08-11T08:59:56.097Z,3.23
2022-08-11T09:02:34.017Z,3.50
2022-08-11T09:05:14.371Z,3.40
2022-08-11T09:07:44.380Z,3.83
2022-08-11T09:10:17.668Z,3.60
2022-08-11T09:12:48.294Z,3.20
2022-08-11T09:15:46.322Z,3.00
2022-08-11T09:18:19.408Z,3.33
2022-08-11T09:20:49.776Z,3.40
2022-08-11T09:24:08.756Z,3.77
2022-08-11T09:26:42.614Z,3.43
2022-08-11T09:29:12.466Z,3.33
2022-08-11T09:31:41.797Z,3.10
2022-08-11T09:34:13.052Z,2.90
2022-08-11T09:36:58.498Z,3.20
2022-08-11T09:39:45.177Z,3.40
2022-08-11T09:42:16.313Z,2.93
2022-08-11T09:44:53.095Z,3.33
2022-08-11T09:47:25.059Z,2.93
2022-08-11T09:50:06.804Z,3.50
2022-08-11T09:53:34.632Z,3.10
2022-08-11T09:55:50.960Z,2.90
2022-08-11T09:58:42.407Z,3.13
2022-08-11T10:01:27.939Z,3.33
2022-08-11T10:04:00.680Z,2.87
2022-08-11T10:06:54.046Z,3.00
2022-08-11T10:09:25.085Z,2.87
2022-08-11T10:11:59.026Z,3.27
2022-08-11T10:14:49.026Z,2.50
2022-08-11T10:20:12.061Z,2.73
2022-08-11T10:23:03.369Z,2.93
2022-08-11T10:28:44.716Z,3.17
2022-08-11T10:31:57.772Z,2.93
2022-08-11T10:34:29.266Z,3.00
2022-08-11T10:37:05.789Z,2.83
2022-08-11T10:39:41.766Z,3.50
2022-08-11T10:42:55.214Z,2.97
2022-08-11T10:48:10.952Z,3.10
2022-08-11T10:51:04.803Z,2.70
2022-08-11T10:57:04.891Z,2.70
2022-08-11T10:59:43.433Z,3.10
2022-08-11T11:02:28.608Z,2.70
2022-08-11T11:05:20.773Z,2.50
2022-08-11T11:11:01.037Z,2.50
2022-08-11T11:13:57.349Z,2.67
2022-08-11T11:16:45.262Z,3.10
2022-08-11T11:19:16.083Z,3.30
2022-08-11T11:21:51.340Z,2.80
2022-08-11T11:24:42.491Z,2.67
2022-08-11T11:27:23.131Z,3.07
2022-08-11T11:30:24.946Z,2.50
2022-08-11T11:33:10.880Z,2.77
2022-08-11T11:41:24.589Z,2.90
2022-08-11T11:46:50.606Z,2.40
2022-08-11T11:55:23.493Z,2.80
2022-08-11T12:01:12.342Z,2.40
2022-08-11T12:03:50.618Z,2.37
2022-08-11T12:06:21.809Z,2.50
2022-08-11T12:08:55.364Z,2.60
2022-08-11T12:11:46.580Z,2.50
2022-08-11T12:14:28.992Z,2.40
2022-08-11T12:17:13.049Z,2.30
2022-08-11T12:19:54.043Z,2.30
2022-08-11T12:25:50.055Z,2.00
2022-08-11T12:28:46.410Z,2.93
2022-08-11T12:31:15.785Z,2.60
2022-08-11T12:33:46.816Z,2.50
2022-08-11T12:36:17.329Z,2.20
2022-08-11T12:38:53.597Z,2.50
2022-08-11T12:41:42.807Z,2.50
2022-08-11T12:44:36.604Z,2.30
2022-08-11T12:47:06.287Z,2.43
2022-08-11T12:49:56.986Z,2.47
2022-08-11T12:52:31.220Z,2.73
2022-08-11T12:55:03.647Z,4.50
2022-08-11T12:57:54.471Z,4.13
2022-08-11T13:00:43.194Z,2.23
2022-08-11T13:03:31.172Z,3.00
2022-08-11T13:06:03.000Z,2.30
2022-08-11T13:08:37.410Z,3.10
2022-08-11T13:16:58.613Z,2.30
2022-08-11T13:19:27.369Z,2.17
2022-08-11T13:22:05.293Z,2.17
2022-08-11T13:24:55.563Z,2.63
2022-08-11T13:27:24.708Z,2.00
2022-08-11T13:30:16.940Z,2.20
2022-08-11T13:32:47.855Z,2.13
2022-08-11T13:35:17.972Z,1.77
2022-08-11T13:38:18.476Z,2.80
2022-08-11T13:40:54.769Z,2.10
2022-08-11T13:43:25.208Z,2.30
2022-08-11T13:46:15.545Z,2.27
2022-08-11T13:48:45.590Z,2.63
2022-08-11T13:51:35.718Z,2.00
2022-08-11T13:54:06.291Z,2.40
2022-08-11T13:56:43.451Z,2.17
2022-08-11T13:59:17.883Z,2.10
2022-08-11T14:02:20.368Z,2.30
2022-08-11T14:04:45.185Z,2.43
2022-08-11T14:07:15.856Z,2.10
2022-08-11T14:09:48.025Z,3.07
2022-08-11T14:12:46.135Z,2.70
2022-08-11T14:15:26.383Z,3.70
2022-08-11T14:18:03.437Z,2.13
2022-08-11T14:20:54.265Z,2.40
2022-08-11T14:23:28.935Z,2.23
2022-08-11T14:26:16.516Z,2.20
2022-08-11T14:28:47.004Z,2.17
2022-08-11T14:31:17.217Z,2.30
2022-08-11T14:33:59.425Z,2.70
2022-08-11T14:36:35.551Z,2.93
2022-08-11T14:39:07.230Z,2.13
2022-08-11T14:42:10.177Z,2.00
2022-08-11T14:45:04.006Z,2.27
2022-08-11T14:47:35.405Z,2.43
2022-08-11T14:50:10.124Z,2.60
2022-08-11T14:52:50.076Z,2.23
2022-08-11T14:55:37.778Z,2.60
2022-08-11T14:58:07.751Z,2.20
2022-08-11T15:00:38.083Z,2.40
2022-08-11T15:03:12.733Z,2.40
2022-08-11T15:05:56.981Z,2.00
2022-08-11T15:08:47.633Z,2.30
2022-08-11T15:11:35.437Z,3.00
2022-08-11T15:14:06.948Z,2.40
2022-08-11T15:16:55.240Z,2.20
2022-08-11T15:19:25.880Z,2.50
2022-08-11T15:22:11.838Z,2.27
2022-08-11T15:24:39.949Z,2.20
2022-08-11T15:27:31.073Z,2.33
2022-08-11T15:30:33.508Z,2.30
2022-08-11T15:33:25.428Z,2.90
2022-08-11T15:36:14.307Z,2.27
2022-08-11T15:38:48.499Z,2.17
2022-08-11T15:41:36.587Z,2.13
2022-08-11T15:44:44.541Z,2.57
2022-08-11T15:47:15.436Z,2.10
2022-08-11T15:50:11.884Z,2.03
2022-08-11T15:52:44.167Z,2.00
2022-08-11T15:55:12.759Z,2.10
2022-08-11T15:57:59.789Z,2.30
2022-08-11T16:00:46.638Z,2.10
2022-08-11T16:03:50.493Z,1.93
2022-08-11T16:06:24.020Z,1.70
2022-08-11T16:08:56.369Z,2.57
2022-08-11T16:11:25.878Z,1.90
2022-08-11T16:14:12.880Z,2.77
2022-08-11T16:16:42.093Z,1.90
2022-08-11T16:19:11.542Z,3.07
2022-08-11T16:21:43.196Z,2.10
2022-08-11T16:26:30.600Z,2.50
2022-08-11T16:27:13.137Z,2.73
2022-08-11T16:29:45.372Z,2.20
2022-08-11T16:32:23.150Z,2.50
2022-08-11T16:35:15.556Z,2.30
2022-08-11T16:38:04.013Z,2.53
2022-08-11T16:40:33.518Z,2.13
2022-08-11T16:43:23.135Z,2.53
2022-08-11T16:46:09.926Z,2.50
2022-08-11T16:48:41.262Z,1.80
2022-08-11T16:51:12.958Z,1.97
2022-08-11T16:54:04.473Z,2.47
2022-08-11T16:56:37.236Z,2.43
2022-08-11T16:59:15.629Z,2.07
2022-08-11T17:01:48.374Z,2.33
2022-08-11T17:04:43.231Z,2.23
2022-08-11T17:07:40.356Z,3.23
2022-08-11T17:10:50.991Z,2.20
2022-08-11T17:13:27.269Z,2.10
2022-08-11T17:16:12.216Z,2.30
2022-08-11T17:18:46.798Z,1.90
2022-08-11T17:21:18.616Z,2.27
2022-08-11T17:23:50.085Z,2.07
2022-08-11T17:26:23.259Z,2.33
2022-08-11T17:28:56.312Z,2.53
2022-08-11T17:31:45.476Z,2.00
2022-08-11T17:34:32.634Z,1.90
2022-08-11T17:37:01.144Z,2.43
2022-08-11T17:39:32.719Z,2.30
2022-08-11T17:42:21.001Z,2.00
2022-08-11T17:45:07.867Z,2.47
2022-08-11T17:47:54.333Z,2.00
2022-08-11T17:50:23.212Z,1.90
2022-08-11T17:53:10.207Z,3.10
2022-08-11T17:55:59.419Z,2.20
2022-08-11T17:58:47.080Z,2.23
2022-08-11T18:01:17.376Z,2.20
2022-08-11T18:03:53.034Z,1.93
2022-08-11T18:06:34.460Z,2.00
2022-08-11T18:09:24.919Z,1.90
2022-08-11T18:12:15.031Z,1.67
2022-08-11T18:15:06.684Z,2.03
2022-08-11T18:17:54.983Z,2.10
2022-08-11T18:20:42.715Z,2.00
2022-08-11T18:23:45.766Z,2.43
2022-08-11T18:26:38.393Z,2.17
2022-08-11T18:29:26.124Z,1.87
2022-08-11T18:32:20.943Z,2.00
2022-08-11T18:35:11.301Z,2.03
2022-08-11T18:38:07.803Z,1.87
2022-08-11T18:40:55.906Z,2.00
2022-08-11T18:44:17.393Z,2.30
2022-08-11T18:47:08.033Z,2.13
2022-08-11T18:53:03.134Z,2.30
2022-08-11T18:55:50.410Z,1.97
2022-08-11T18:58:44.348Z,2.37
2022-08-11T19:01:32.910Z,2.10
2022-08-11T19:04:20.349Z,2.53
2022-08-11T19:07:11.688Z,2.27
2022-08-11T19:09:59.918Z,2.00
2022-08-11T19:12:50.785Z,2.50
2022-08-11T19:15:38.726Z,2.13
2022-08-11T19:18:26.049Z,2.10
2022-08-11T19:21:13.562Z,2.30
2022-08-11T19:24:03.552Z,2.00
2022-08-11T19:26:51.073Z,2.10
2022-08-11T19:30:07.093Z,1.90
2022-08-11T19:32:47.818Z,1.90
2022-08-11T19:35:34.576Z,1.70
2022-08-11T19:38:21.852Z,2.40
2022-08-11T19:41:09.795Z,2.07
2022-08-11T19:43:58.096Z,2.20
2022-08-11T19:46:44.454Z,2.20
2022-08-11T19:49:31.668Z,5.37
2022-08-11T19:52:18.276Z,2.70
2022-08-11T19:55:04.592Z,2.63
2022-08-11T19:57:53.667Z,2.77
2022-08-11T20:00:40.046Z,2.10
2022-08-11T20:03:27.369Z,1.80
2022-08-11T20:06:15.967Z,2.10
2022-08-11T20:09:04.156Z,2.37
2022-08-11T20:11:55.473Z,2.10
2022-08-11T20:14:45.183Z,2.30
2022-08-11T20:17:34.041Z,2.17
2022-08-11T20:20:22.926Z,2.43
2022-08-11T20:23:11.546Z,1.83
2022-08-11T20:26:08.447Z,1.90
2022-08-11T20:29:03.248Z,2.53
2022-08-11T20:35:40.528Z,2.23
2022-08-11T20:38:28.724Z,2.73
2022-08-11T20:44:17.131Z,2.37
2022-08-11T20:47:18.227Z,2.33
2022-08-11T20:50:05.816Z,2.20
2022-08-11T20:53:09.681Z,2.43
2022-08-11T20:55:59.269Z,2.17
2022-08-11T21:02:03.130Z,2.23
2022-08-11T21:04:54.125Z,1.90
2022-08-11T21:22:27.839Z,2.40
2022-08-11T21:28:31.091Z,2.00
2022-08-11T21:43:31.539Z,4.50
2022-08-11T21:46:19.865Z,2.93
2022-08-11T21:49:06.394Z,2.40
2022-08-11T21:54:53.655Z,2.60
2022-08-11T21:57:49.983Z,2.47
2022-08-11T22:00:43.787Z,2.83
2022-08-11T22:06:30.067Z,2.07
2022-08-11T22:09:16.126Z,2.33
2022-08-11T22:12:29.577Z,2.30
2022-08-11T22:18:13.322Z,2.43
2022-08-11T22:20:59.818Z,2.47
2022-08-11T22:23:48.632Z,2.40
2022-08-11T22:26:37.478Z,2.03
2022-08-11T22:29:41.368Z,1.97
2022-08-11T22:32:33.998Z,2.20
2022-08-11T22:35:24.076Z,2.40
2022-08-11T22:38:16.233Z,2.10
2022-08-11T22:41:02.561Z,2.10
2022-08-11T22:43:48.925Z,2.10
2022-08-11T22:46:40.172Z,2.57
2022-08-11T22:49:27.796Z,2.43
2022-08-11T22:52:17.986Z,2.50
2022-08-11T22:55:05.508Z,2.30
2022-08-11T22:58:00.931Z,2.40
2022-08-11T23:00:47.933Z,2.33
2022-08-11T23:03:37.451Z,1.80
2022-08-11T23:06:25.371Z,2.17
2022-08-11T23:09:25.135Z,2.47
2022-08-11T23:12:11.810Z,2.60
2022-08-11T23:15:11.178Z,3.00
2022-08-11T23:18:01.183Z,2.23
2022-08-11T23:20:58.242Z,2.70
2022-08-11T23:23:47.816Z,2.50
2022-08-11T23:26:38.693Z,2.33
2022-08-11T23:29:27.242Z,2.70
2022-08-11T23:32:17.810Z,2.10
2022-08-11T23:35:38.758Z,2.50
2022-08-11T23:38:16.627Z,2.07
2022-08-11T23:41:03.777Z,2.47
2022-08-11T23:43:51.248Z,2.40
2022-08-11T23:46:39.209Z,2.43
2022-08-11T23:49:26.661Z,2.97
2022-08-11T23:52:12.895Z,2.50
2022-08-11T23:54:59.114Z,2.30
2022-08-11T23:57:47.870Z,2.50
